Time;durP1;ratioP1;P1;durP2;ratioP2;P2;SDS_P1;SDS_P2;PMS_P1;PMS_P2;Temp;Humidity;BMP_temperature;BMP_pressure;BME280_temperature;BME280_humidity;BME280_pressure;Samples;Min_cycle;Max_cycle;Signal;HPM_P1;HPM_P2
2024/02/24 00:00:34;;;;;;;4.80;1.70;;;5.30;99.90;;;;;;5003109;28;20120;-73
2024/02/24 00:03:00;;;;;;;4.90;1.95;;;5.20;99.90;;;;;;4983887;28;20053;-72
2024/02/24 00:05:26;;;;;;;4.85;2.00;;;5.20;99.90;;;;;;5002947;28;20148;-73
2024/02/24 00:07:53;;;;;;;4.28;2.42;;;5.20;99.90;;;;;;5011918;28;20105;-73
2024/02/24 00:10:19;;;;;;;4.50;2.03;;;5.10;99.90;;;;;;5012516;28;20071;-72
2024/02/24 00:12:45;;;;;;;7.43;1.67;;;5.10;99.90;;;;;;5024203;28;20038;-73
2024/02/24 00:15:11;;;;;;;8.13;2.13;;;5.00;99.90;;;;;;4990134;28;20219;-72
2024/02/24 00:17:38;;;;;;;7.55;1.75;;;5.00;99.90;;;;;;5007206;28;20049;-73
2024/02/24 00:20:08;;;;;;;6.88;1.58;;;4.90;99.90;;;;;;5006264;28;20492;-73
2024/02/24 00:22:37;;;;;;;4.15;1.50;;;4.90;99.90;;;;;;5023047;28;20203;-73
2024/02/24 00:25:03;;;;;;;3.40;1.50;;;4.90;99.90;;;;;;5023047;28;20587;-73
2024/02/24 00:27:29;;;;;;;6.90;2.20;;;4.80;99.90;;;;;;4981241;28;20081;-73
2024/02/24 00:29:55;;;;;;;7.75;1.88;;;4.80;99.90;;;;;;5007206;28;20045;-73
2024/02/24 00:32:20;;;;;;;3.83;2.10;;;4.70;99.90;;;;;;5005317;28;20049;-72
2024/02/24 00:34:46;;;;;;;6.07;2.15;;;4.70;99.90;;;;;;5007105;28;20049;-73
2024/02/24 00:37:12;;;;;;;5.45;2.13;;;4.60;99.90;;;;;;5021907;28;20095;-73
2024/02/24 00:39:38;;;;;;;7.80;2.20;;;4.50;99.90;;;;;;5007381;28;20057;-73
2024/02/24 00:42:04;;;;;;;5.18;2.00;;;4.50;99.90;;;;;;5017118;28;20507;-73
2024/02/24 00:44:31;;;;;;;2.90;1.90;;;4.50;99.90;;;;;;5021688;28;20041;-73
2024/02/24 00:46:56;;;;;;;4.20;1.90;;;4.50;99.90;;;;;;4989545;28;20128;-73
2024/02/24 00:49:22;;;;;;;3.25;1.60;;;4.50;99.90;;;;;;5004416;28;20045;-73
2024/02/24 00:51:48;;;;;;;5.38;2.10;;;4.50;99.90;;;;;;4995596;28;20499;-72
2024/02/24 00:54:14;;;;;;;2.85;1.70;;;4.60;99.90;;;;;;4989531;28;20645;-73
2024/02/24 00:56:40;;;;;;;5.72;1.83;;;4.60;99.90;;;;;;5006296;28;20045;-73
2024/02/24 00:59:06;;;;;;;5.03;1.98;;;4.60;99.90;;;;;;4987926;28;20041;-73
2024/02/24 01:01:32;;;;;;;3.83;2.20;;;4.70;99.90;;;;;;5009262;28;20140;-73
2024/02/24 01:03:57;;;;;;;8.52;2.45;;;4.70;99.90;;;;;;4993117;28;20053;-73
2024/02/24 01:06:23;;;;;;;3.63;1.85;;;4.80;99.90;;;;;;5021945;28;20048;-73
2024/02/24 01:08:49;;;;;;;3.95;1.83;;;4.80;99.90;;;;;;5006766;28;20052;-73
2024/02/24 01:11:15;;;;;;;1.77;1.67;;;4.80;99.90;;;;;;5021853;28;20045;-73
2024/02/24 01:13:43;;;;;;;3.47;1.73;;;5.00;99.90;;;;;;5015537;28;20057;-73
2024/02/24 01:16:09;;;;;;;4.90;1.58;;;5.00;99.90;;;;;;5023659;28;20049;-73
2024/02/24 01:18:35;;;;;;;5.82;1.88;;;5.00;99.90;;;;;;5022749;28;20059;-72
2024/02/24 01:21:04;;;;;;;2.08;1.48;;;5.10;99.90;;;;;;5006402;28;20159;-73
2024/02/24 01:23:30;;;;;;;7.18;2.00;;;5.10;99.90;;;;;;5000936;28;20057;-72
2024/02/24 01:25:56;;;;;;;4.03;1.48;;;5.10;99.90;;;;;;5006958;28;20518;-73
2024/02/24 01:28:21;;;;;;;6.75;2.13;;;5.10;99.90;;;;;;5021495;28;20041;-73
2024/02/24 01:30:47;;;;;;;7.35;2.25;;;5.10;99.90;;;;;;5006452;28;20049;-73
2024/02/24 01:33:13;;;;;;;7.97;2.55;;;5.10;99.90;;;;;;5020580;28;20051;-74
2024/02/24 01:35:38;;;;;;;9.10;2.22;;;5.10;99.90;;;;;;5006396;28;20042;-73
2024/02/24 01:38:05;;;;;;;8.18;2.10;;;5.10;99.90;;;;;;4989027;28;20642;-73
2024/02/24 01:40:31;;;;;;;9.73;2.45;;;5.00;99.90;;;;;;5005476;28;20050;-73
2024/02/24 01:42:57;;;;;;;3.83;2.20;;;5.00;99.90;;;;;;5023254;28;20064;-73
2024/02/24 01:45:23;;;;;;;11.45;2.20;;;4.90;99.90;;;;;;5008618;28;20396;-73
2024/02/24 01:47:52;;;;;;;2.65;1.90;;;4.80;99.90;;;;;;5017945;28;20053;-73
2024/02/24 01:50:19;;;;;;;7.93;2.40;;;4.80;99.90;;;;;;5004111;28;20073;-73
2024/02/24 01:52:49;;;;;;;3.15;1.92;;;4.70;99.90;;;;;;5018089;28;20426;-72
2024/02/24 01:55:17;;;;;;;5.47;2.33;;;4.60;99.90;;;;;;5005321;28;20041;-73
2024/02/24 01:57:44;;;;;;;2.65;1.60;;;4.60;99.90;;;;;;5021822;28;20316;-73
2024/02/24 02:00:11;;;;;;;5.15;2.10;;;4.60;99.90;;;;;;5021414;28;20038;-73
2024/02/24 02:02:40;;;;;;;7.55;1.75;;;4.50;99.90;;;;;;5001352;28;20072;-72
2024/02/24 02:05:09;;;;;;;7.00;2.13;;;4.50;99.90;;;;;;5022531;28;20488;-72
2024/02/24 02:07:35;;;;;;;5.85;1.88;;;4.40;99.90;;;;;;5018705;28;20752;-73
2024/02/24 02:10:03;;;;;;;2.55;1.58;;;4.40;99.90;;;;;;5022414;28;20049;-73
2024/02/24 02:12:31;;;;;;;4.10;1.98;;;4.40;99.90;;;;;;5009886;28;20566;-72
2024/02/24 02:14:57;;;;;;;4.55;1.83;;;4.30;99.90;;;;;;5020885;28;20120;-73
2024/02/24 02:17:22;;;;;;;5.00;2.10;;;4.20;99.90;;;;;;5022426;28;20555;-73
2024/02/24 02:19:48;;;;;;;4.97;2.20;;;4.20;99.90;;;;;;5020071;28;20542;-73
2024/02/24 02:22:16;;;;;;;6.00;1.90;;;4.10;99.90;;;;;;5001424;28;20084;-73
2024/02/24 02:24:46;;;;;;;6.40;1.90;;;4.00;99.90;;;;;;5019793;28;20076;-73
2024/02/24 02:27:12;;;;;;;7.77;1.73;;;3.90;99.90;;;;;;5022555;28;20103;-73
2024/02/24 02:29:38;;;;;;;3.92;2.05;;;3.90;99.90;;;;;;5003833;28;20387;-73
2024/02/24 02:32:04;;;;;;;5.60;1.92;;;3.90;99.90;;;;;;5021043;28;20053;-73
2024/02/24 02:34:30;;;;;;;4.47;1.63;;;3.80;99.90;;;;;;5021517;28;20057;-73
2024/02/24 02:36:55;;;;;;;4.93;1.73;;;3.80;99.90;;;;;;5020687;28;20057;-72
2024/02/24 02:39:21;;;;;;;6.65;2.17;;;3.80;99.90;;;;;;5022454;28;20056;-73
2024/02/24 02:41:47;;;;;;;10.30;1.50;;;3.70;99.90;;;;;;5003640;28;20052;-73
2024/02/24 02:44:14;;;;;;;5.40;1.50;;;3.80;99.90;;;;;;5005123;28;20510;-73
2024/02/24 02:46:46;;;;;;;7.80;1.60;;;3.90;99.90;;;;;;5003510;28;20443;-73
2024/02/24 02:49:12;;;;;;;4.18;1.70;;;3.90;99.90;;;;;;5022058;28;20045;-73
2024/02/24 02:51:38;;;;;;;8.27;1.65;;;4.00;99.90;;;;;;5021456;28;20155;-73
2024/02/24 02:54:04;;;;;;;5.47;2.05;;;3.90;99.90;;;;;;5020308;28;20474;-73
2024/02/24 02:56:30;;;;;;;13.38;2.20;;;3.90;99.90;;;;;;5005603;28;20052;-73
2024/02/24 02:58:55;;;;;;;3.17;2.17;;;3.90;99.90;;;;;;5019659;28;20510;-72
2024/02/24 03:01:21;;;;;;;4.72;1.90;;;3.90;99.90;;;;;;5021661;28;20048;-72
2024/02/24 03:03:47;;;;;;;6.03;1.88;;;3.90;99.90;;;;;;5019137;28;20042;-72
2024/02/24 03:06:13;;;;;;;2.28;2.00;;;3.90;99.90;;;;;;5005528;28;20053;-72
2024/02/24 03:08:39;;;;;;;3.08;1.90;;;4.00;99.90;;;;;;5020172;28;20053;-73
2024/02/24 03:11:12;;;;;;;5.32;2.25;;;3.90;99.90;;;;;;5004181;28;20049;-72
2024/02/24 03:13:38;;;;;;;2.13;1.92;;;4.00;99.90;;;;;;5021879;28;20053;-72
2024/02/24 03:16:04;;;;;;;9.32;2.47;;;4.00;99.90;;;;;;5007134;28;20092;-73
2024/02/24 03:18:30;;;;;;;8.13;2.13;;;3.90;99.90;;;;;;5004817;28;20092;-72
2024/02/24 03:20:55;;;;;;;3.15;1.83;;;4.00;99.90;;;;;;5019169;28;20041;-72
2024/02/24 03:23:21;;;;;;;3.13;1.92;;;3.90;99.90;;;;;;5021464;28;20052;-73
2024/02/24 03:25:47;;;;;;;5.95;2.45;;;3.90;99.90;;;;;;5019500;28;20050;-72
2024/02/24 03:28:14;;;;;;;3.03;1.60;;;3.90;99.90;;;;;;5004682;28;20057;-73
2024/02/24 03:30:40;;;;;;;7.07;1.60;;;3.90;99.90;;;;;;5005186;28;20522;-72
2024/02/24 03:33:06;;;;;;;3.38;1.52;;;4.00;99.90;;;;;;5019513;28;20041;-73
2024/02/24 03:35:32;;;;;;;4.75;1.40;;;4.00;99.90;;;;;;5004898;28;20092;-73
2024/02/24 03:37:57;;;;;;;2.10;1.55;;;3.90;99.90;;;;;;5002639;28;20842;-73
2024/02/24 03:40:23;;;;;;;6.15;1.67;;;4.00;99.90;;;;;;5024758;28;20130;-73
2024/02/24 03:42:49;;;;;;;3.78;1.40;;;4.00;99.90;;;;;;5008403;28;20458;-73
2024/02/24 03:45:15;;;;;;;2.08;1.00;;;4.00;99.90;;;;;;5021474;28;20058;-73
2024/02/24 03:47:41;;;;;;;5.95;1.58;;;3.90;99.90;;;;;;5020532;28;20575;-73
2024/02/24 03:50:08;;;;;;;6.28;1.40;;;4.00;99.90;;;;;;5019620;28;20057;-72
2024/02/24 03:52:33;;;;;;;2.58;1.60;;;3.90;99.90;;;;;;5019837;28;20084;-73
2024/02/24 03:54:59;;;;;;;3.38;1.52;;;3.80;99.90;;;;;;5020295;28;20085;-73
2024/02/24 03:57:25;;;;;;;6.13;1.30;;;3.80;99.90;;;;;;5020942;28;20037;-73
2024/02/24 03:59:50;;;;;;;2.42;1.33;;;3.90;99.90;;;;;;5002886;28;20053;-72
2024/02/24 04:02:16;;;;;;;2.38;1.40;;;3.80;99.90;;;;;;5004413;28;20242;-72
2024/02/24 04:04:42;;;;;;;2.08;1.58;;;3.80;99.90;;;;;;5018895;28;20041;-72
2024/02/24 04:07:08;;;;;;;3.33;1.40;;;3.70;99.90;;;;;;5003329;28;20084;-72
2024/02/24 04:09:34;;;;;;;3.13;2.45;;;3.70;99.90;;;;;;4987856;28;20061;-72
2024/02/24 04:11:59;;;;;;;2.67;1.25;;;3.80;99.90;;;;;;5019395;28;20468;-73
2024/02/24 04:14:25;;;;;;;3.47;1.55;;;3.80;99.90;;;;;;5004826;28;20045;-73
2024/02/24 04:16:51;;;;;;;2.80;1.40;;;3.70;99.90;;;;;;5002082;28;20492;-72
2024/02/24 04:19:16;;;;;;;4.82;1.35;;;3.70;99.90;;;;;;5020968;28;20488;-73
2024/02/24 04:21:42;;;;;;;3.15;1.00;;;3.80;99.90;;;;;;5019022;28;20042;-73
2024/02/24 04:24:08;;;;;;;2.95;1.50;;;3.70;99.90;;;;;;5004029;28;20045;-73
2024/02/24 04:26:34;;;;;;;4.88;1.48;;;3.70;99.90;;;;;;5020250;28;20057;-72
2024/02/24 04:28:59;;;;;;;4.40;1.60;;;3.70;99.90;;;;;;5019079;28;20077;-73
2024/02/24 04:31:27;;;;;;;0.90;0.90;;;3.60;99.90;;;;;;5019916;28;20045;-72
2024/02/24 04:33:53;;;;;;;4.72;1.30;;;3.60;99.90;;;;;;5018569;28;20045;-72
2024/02/24 04:36:19;;;;;;;2.33;1.40;;;3.60;99.90;;;;;;5018893;28;20064;-73
2024/02/24 04:38:44;;;;;;;2.15;1.30;;;3.60;99.90;;;;;;4989626;28;20049;-73
2024/02/24 04:41:10;;;;;;;2.83;1.27;;;3.60;99.90;;;;;;4994900;28;20496;-72
2024/02/24 04:43:36;;;;;;;6.05;1.50;;;3.60;99.90;;;;;;5022992;28;20045;-73
2024/02/24 04:46:01;;;;;;;3.75;1.60;;;3.50;99.90;;;;;;5023705;28;20100;-73
2024/02/24 04:48:27;;;;;;;2.40;1.30;;;3.50;99.90;;;;;;5023385;28;20057;-73
2024/02/24 04:50:53;;;;;;;2.28;1.35;;;3.50;99.90;;;;;;5022607;28;20104;-72
2024/02/24 04:53:18;;;;;;;2.72;1.10;;;3.50;99.90;;;;;;5022718;28;20123;-73
2024/02/24 04:55:44;;;;;;;2.63;1.60;;;3.50;99.90;;;;;;5022089;28;20100;-73
2024/02/24 04:58:10;;;;;;;3.78;1.52;;;3.40;99.90;;;;;;5006924;28;20051;-72
2024/02/24 05:00:36;;;;;;;3.85;1.52;;;3.50;99.90;;;;;;5022174;28;20045;-72
2024/02/24 05:03:01;;;;;;;4.72;1.48;;;3.50;99.90;;;;;;5007344;28;20155;-72
2024/02/24 05:05:27;;;;;;;2.70;1.33;;;3.50;99.90;;;;;;5022528;28;20603;-73
2024/02/24 05:07:53;;;;;;;3.85;1.30;;;3.40;99.90;;;;;;5023049;28;20579;-73
2024/02/24 05:10:18;;;;;;;7.45;1.50;;;3.40;99.90;;;;;;5023437;28;20061;-72
2024/02/24 05:12:50;;;;;;;2.80;1.17;;;3.40;99.90;;;;;;4988998;28;20124;-73
2024/02/24 05:15:17;;;;;;;3.13;1.50;;;3.50;99.90;;;;;;5023168;28;20132;-73
2024/02/24 05:17:43;;;;;;;5.03;1.63;;;3.40;99.90;;;;;;5004985;28;20057;-73
2024/02/24 05:20:12;;;;;;;1.77;1.52;;;3.50;99.90;;;;;;5023736;28;20408;-72
2024/02/24 05:22:38;;;;;;;6.00;1.73;;;3.50;99.90;;;;;;5006193;28;20075;-72
2024/02/24 05:25:06;;;;;;;6.80;1.92;;;3.60;99.90;;;;;;5022409;28;20049;-72
2024/02/24 05:27:32;;;;;;;3.40;1.73;;;3.60;99.90;;;;;;5023004;28;20045;-72
2024/02/24 05:29:57;;;;;;;2.80;1.52;;;3.60;99.90;;;;;;5019937;28;20060;-73
2024/02/24 05:32:23;;;;;;;3.20;1.63;;;3.60;99.90;;;;;;5002229;28;20128;-73
2024/02/24 05:34:49;;;;;;;4.72;1.70;;;3.50;99.90;;;;;;5005308;28;20048;-73
2024/02/24 05:37:15;;;;;;;4.10;1.98;;;3.40;99.90;;;;;;5006308;28;20060;-73
2024/02/24 05:39:41;;;;;;;4.78;1.98;;;3.40;99.90;;;;;;5022231;28;20045;-73
2024/02/24 05:42:07;;;;;;;2.65;1.83;;;3.40;99.90;;;;;;5022513;28;20060;-72
2024/02/24 05:44:33;;;;;;;7.03;1.88;;;3.30;99.90;;;;;;5005774;28;20459;-72
2024/02/24 05:46:59;;;;;;;2.95;1.48;;;3.30;99.90;;;;;;5005312;28;20037;-73
2024/02/24 05:49:25;;;;;;;3.30;1.83;;;3.20;99.90;;;;;;5022496;28;20400;-73
2024/02/24 05:51:51;;;;;;;5.38;2.00;;;3.10;99.90;;;;;;5020962;28;20077;-72
2024/02/24 05:54:16;;;;;;;2.00;1.65;;;3.20;99.90;;;;;;5016375;28;20026;-73
2024/02/24 05:56:42;;;;;;;3.47;1.58;;;3.10;99.90;;;;;;5021176;28;20111;-73
2024/02/24 05:59:08;;;;;;;4.07;2.00;;;3.10;99.90;;;;;;4989741;28;20535;-72
2024/02/24 06:01:33;;;;;;;5.00;1.98;;;3.10;99.90;;;;;;5021600;28;20136;-72
2024/02/24 06:03:59;;;;;;;4.60;1.88;;;3.10;99.90;;;;;;5021693;28;20152;-73
2024/02/24 06:06:25;;;;;;;2.40;2.10;;;3.00;99.90;;;;;;5003356;28;20079;-72
2024/02/24 06:08:51;;;;;;;7.45;2.28;;;3.00;99.90;;;;;;5020743;28;20053;-72
2024/02/24 06:11:17;;;;;;;3.17;2.45;;;2.90;99.90;;;;;;5022039;28;20129;-73
2024/02/24 06:13:42;;;;;;;7.05;2.40;;;3.00;99.90;;;;;;5020769;28;20057;-72
2024/02/24 06:16:08;;;;;;;4.75;2.08;;;3.10;99.90;;;;;;5016997;28;20050;-72
2024/02/24 06:18:34;;;;;;;4.53;2.28;;;3.10;99.90;;;;;;5021332;28;20053;-73
2024/02/24 06:21:00;;;;;;;5.03;2.92;;;3.10;99.90;;;;;;5021461;28;20084;-73
2024/02/24 06:23:26;;;;;;;4.47;2.50;;;3.20;99.90;;;;;;5021605;28;20053;-72
2024/02/24 06:25:52;;;;;;;5.03;2.70;;;3.20;99.90;;;;;;4988584;28;20327;-72
2024/02/24 06:28:18;;;;;;;4.80;2.95;;;3.20;99.90;;;;;;5004313;28;20411;-72
2024/02/24 06:30:45;;;;;;;7.18;3.83;;;3.20;99.90;;;;;;5004013;28;20053;-73
2024/02/24 06:33:11;;;;;;;7.50;3.40;;;3.30;99.90;;;;;;5020880;28;20914;-73
2024/02/24 06:35:37;;;;;;;4.97;3.13;;;3.30;99.90;;;;;;5020141;28;20059;-73
2024/02/24 06:38:02;;;;;;;12.43;4.03;;;3.20;99.90;;;;;;4988316;28;20054;-73
2024/02/24 06:40:28;;;;;;;4.95;2.88;;;3.20;99.90;;;;;;5004130;28;20324;-73
2024/02/24 06:42:55;;;;;;;9.63;3.30;;;3.20;99.90;;;;;;5004832;28;20045;-73
2024/02/24 06:45:21;;;;;;;4.40;3.47;;;3.20;99.90;;;;;;5021590;28;20129;-73
2024/02/24 06:47:46;;;;;;;3.55;2.95;;;3.20;99.90;;;;;;5019601;28;20124;-72
2024/02/24 06:50:12;;;;;;;7.00;2.85;;;3.20;99.90;;;;;;5021629;28;20045;-72
2024/02/24 06:52:38;;;;;;;4.97;3.00;;;3.30;99.90;;;;;;5019954;28;20057;-72
2024/02/24 06:55:04;;;;;;;3.80;3.08;;;3.30;99.90;;;;;;5005395;28;20115;-72
2024/02/24 06:57:30;;;;;;;4.25;2.85;;;3.30;99.90;;;;;;5020032;28;20497;-72
2024/02/24 06:59:56;;;;;;;4.40;3.13;;;3.40;99.90;;;;;;5003484;28;20160;-72
2024/02/24 07:02:21;;;;;;;4.07;2.90;;;3.40;99.90;;;;;;5020886;28;20045;-72
2024/02/24 07:04:47;;;;;;;5.93;2.90;;;3.40;99.90;;;;;;4987371;28;20076;-72
2024/02/24 07:07:13;;;;;;;4.70;2.75;;;3.40;99.90;;;;;;5021340;28;20222;-72
2024/02/24 07:09:39;;;;;;;9.43;3.47;;;3.40;99.90;;;;;;5020624;28;20046;-72
2024/02/24 07:12:05;;;;;;;3.83;2.95;;;3.50;99.90;;;;;;5021724;28;20171;-72
2024/02/24 07:14:31;;;;;;;8.82;2.95;;;3.50;99.90;;;;;;5003451;28;20045;-73
2024/02/24 07:16:57;;;;;;;6.57;3.67;;;3.50;99.90;;;;;;5021484;28;20049;-73
2024/02/24 07:19:22;;;;;;;5.20;2.67;;;3.50;99.90;;;;;;4994794;28;20061;-72
2024/02/24 07:21:48;;;;;;;6.05;2.70;;;3.50;99.90;;;;;;4987726;28;20508;-72
2024/02/24 07:24:14;;;;;;;7.88;3.50;;;3.50;99.90;;;;;;5005280;28;20099;-73
2024/02/24 07:26:43;;;;;;;10.45;3.47;;;3.50;99.90;;;;;;5020101;28;20076;-73
2024/02/24 07:29:09;;;;;;;7.20;3.80;;;3.50;99.90;;;;;;4991723;28;20049;-73
2024/02/24 07:31:38;;;;;;;5.18;2.92;;;3.50;99.90;;;;;;5026673;28;20038;-72
2024/02/24 07:34:04;;;;;;;6.82;3.55;;;3.60;99.90;;;;;;5020122;28;20132;-73
2024/02/24 07:36:30;;;;;;;7.20;3.40;;;3.70;99.90;;;;;;5003468;28;20476;-73
2024/02/24 07:38:56;;;;;;;9.63;3.22;;;3.80;99.90;;;;;;5000125;28;20042;-72
2024/02/24 07:41:22;;;;;;;5.88;3.58;;;3.80;99.90;;;;;;5020625;28;20056;-73
2024/02/24 07:43:48;;;;;;;3.35;3.05;;;3.90;99.90;;;;;;5007899;28;20131;-73
2024/02/24 07:46:29;;;;;;;7.50;3.42;;;4.00;99.90;;;;;;5000324;28;20108;-72
2024/02/24 07:48:56;;;;;;;8.85;3.38;;;4.10;99.90;;;;;;5014082;28;20046;-73
2024/02/24 07:51:22;;;;;;;5.13;2.97;;;4.10;99.90;;;;;;5004877;28;20486;-73
2024/02/24 07:53:48;;;;;;;3.72;2.83;;;4.20;99.90;;;;;;5020008;28;20862;-72
2024/02/24 07:56:14;;;;;;;5.68;3.40;;;4.20;99.90;;;;;;5020716;28;20492;-72
2024/02/24 07:58:40;;;;;;;12.43;3.85;;;4.30;99.90;;;;;;5004480;28;20096;-72
2024/02/24 08:01:06;;;;;;;3.65;3.22;;;4.40;99.90;;;;;;5016137;28;20077;-73
2024/02/24 08:03:32;;;;;;;8.88;4.00;;;4.40;99.90;;;;;;4993225;28;20085;-73
2024/02/24 08:05:58;;;;;;;10.23;3.78;;;4.40;99.90;;;;;;5002705;28;20073;-72
2024/02/24 08:08:23;;;;;;;7.55;4.38;;;4.50;99.90;;;;;;5008001;28;20089;-72
2024/02/24 08:10:49;;;;;;;5.28;3.50;;;4.50;99.90;;;;;;5021101;28;20510;-72
2024/02/24 08:13:15;;;;;;;13.50;4.13;;;4.60;99.90;;;;;;5016422;28;20498;-73
2024/02/24 08:15:41;;;;;;;7.45;4.05;;;4.60;99.90;;;;;;5006242;28;20096;-72
2024/02/24 08:18:07;;;;;;;8.52;4.30;;;4.60;99.90;;;;;;5021302;28;20046;-73
2024/02/24 08:20:32;;;;;;;6.85;4.07;;;4.60;99.90;;;;;;5009093;28;20061;-72
2024/02/24 08:22:58;;;;;;;6.90;4.13;;;4.70;99.90;;;;;;5005581;28;20111;-73
2024/02/24 08:25:24;;;;;;;7.55;4.22;;;4.70;99.90;;;;;;5024432;28;20048;-72
2024/02/24 08:27:50;;;;;;;7.30;4.57;;;4.80;99.90;;;;;;5022660;28;20042;-72
2024/02/24 08:30:16;;;;;;;9.80;4.75;;;4.80;99.90;;;;;;5023195;28;20061;-72
2024/02/24 08:32:42;;;;;;;6.22;4.30;;;4.90;99.90;;;;;;5006332;28;20556;-72
2024/02/24 08:35:08;;;;;;;11.98;4.32;;;4.90;99.90;;;;;;5022045;28;20084;-72
2024/02/24 08:37:33;;;;;;;5.72;4.25;;;5.00;99.90;;;;;;5002273;28;20470;-72
2024/02/24 08:39:59;;;;;;;9.70;4.65;;;5.00;99.90;;;;;;5021343;28;20088;-73
2024/02/24 08:42:25;;;;;;;9.95;5.05;;;5.00;99.90;;;;;;5017172;28;20491;-73
2024/02/24 08:44:51;;;;;;;7.55;4.57;;;5.10;99.90;;;;;;4994687;28;20439;-73
2024/02/24 08:47:16;;;;;;;10.10;4.47;;;5.20;99.90;;;;;;5021483;28;20523;-72
2024/02/24 08:49:42;;;;;;;13.30;4.95;;;5.20;99.90;;;;;;5002805;28;20837;-73
2024/02/24 08:52:08;;;;;;;8.35;4.70;;;5.30;99.90;;;;;;5014175;28;20064;-72
2024/02/24 08:54:33;;;;;;;7.25;4.13;;;5.30;99.90;;;;;;5034735;28;20506;-72
2024/02/24 08:57:00;;;;;;;6.95;4.30;;;5.40;99.90;;;;;;5021977;28;20121;-72
2024/02/24 08:59:27;;;;;;;8.90;4.40;;;5.50;99.90;;;;;;5026260;28;20404;-72
2024/02/24 09:01:55;;;;;;;6.57;4.35;;;5.60;99.90;;;;;;5019084;28;20052;-72
2024/02/24 09:04:21;;;;;;;7.15;4.28;;;5.70;99.90;;;;;;4987811;28;20052;-72
2024/02/24 09:06:47;;;;;;;6.38;4.20;;;5.70;99.90;;;;;;4988825;28;20041;-72
2024/02/24 09:09:14;;;;;;;10.10;5.03;;;5.70;99.90;;;;;;5009199;28;20389;-72
2024/02/24 09:11:41;;;;;;;11.35;4.70;;;5.80;99.90;;;;;;5040562;28;20045;-72
2024/02/24 09:14:07;;;;;;;7.43;4.28;;;5.80;99.90;;;;;;4990136;28;20614;-72
2024/02/24 09:16:33;;;;;;;11.60;4.22;;;5.80;99.90;;;;;;5020182;28;20136;-72
2024/02/24 09:18:58;;;;;;;7.20;3.88;;;5.90;99.90;;;;;;5032445;28;20072;-72
2024/02/24 09:21:24;;;;;;;12.20;4.45;;;6.00;99.90;;;;;;5016438;28;20229;-72
2024/02/24 09:23:50;;;;;;;9.15;5.13;;;6.00;99.90;;;;;;5021091;28;20827;-72
2024/02/24 09:26:16;;;;;;;8.73;3.92;;;6.10;99.90;;;;;;5026526;28;20037;-72
2024/02/24 09:28:42;;;;;;;7.28;4.28;;;6.20;99.90;;;;;;5008431;28;20523;-72
2024/02/24 09:31:09;;;;;;;4.97;3.35;;;6.30;99.90;;;;;;5025072;28;20052;-72
2024/02/24 09:33:35;;;;;;;8.70;4.45;;;6.40;99.90;;;;;;5024423;28;20052;-72
2024/02/24 09:36:01;;;;;;;6.00;4.05;;;6.40;99.90;;;;;;5034217;28;20564;-72
2024/02/24 09:38:27;;;;;;;16.75;5.20;;;6.50;99.90;;;;;;5038532;28;20047;-72
2024/02/24 09:40:53;;;;;;;4.65;4.15;;;6.60;99.90;;;;;;5024634;28;20057;-72
2024/02/24 09:43:19;;;;;;;10.95;4.32;;;6.60;99.90;;;;;;5023081;28;20527;-71
2024/02/24 09:45:48;;;;;;;7.20;3.92;;;6.70;99.90;;;;;;5024292;28;20052;-71
2024/02/24 09:48:15;;;;;;;3.33;1.42;;;6.70;99.90;;;;;;5005013;28;20127;-72
2024/02/24 09:50:41;;;;;;;1.98;1.85;;;6.80;99.90;;;;;;5024737;28;20041;-72
2024/02/24 09:53:07;;;;;;;5.95;3.28;;;6.90;99.90;;;;;;4995867;28;20064;-72
2024/02/24 09:55:35;;;;;;;6.82;3.63;;;6.90;99.90;;;;;;5023427;28;20084;-71
2024/02/24 09:58:03;;;;;;;4.28;3.20;;;6.90;99.90;;;;;;5032240;28;20060;-73
2024/02/24 10:00:29;;;;;;;7.65;4.53;;;6.90;99.90;;;;;;5022362;28;20092;-72
2024/02/24 10:02:55;;;;;;;2.22;1.85;;;7.00;99.90;;;;;;5006221;28;20083;-72
2024/02/24 10:05:21;;;;;;;5.43;4.43;;;7.10;99.90;;;;;;4976727;28;20045;-73
2024/02/24 10:07:46;;;;;;;5.50;2.88;;;7.10;99.90;;;;;;5004368;28;20062;-72
2024/02/24 10:10:14;;;;;;;4.55;4.07;;;7.10;99.90;;;;;;5015736;28;20053;-72
2024/02/24 10:12:58;;;;;;;6.72;5.07;;;7.10;99.90;;;;;;5025865;28;20312;-72
2024/02/24 10:15:24;;;;;;;7.20;4.28;;;7.10;99.90;;;;;;5023348;28;20045;-72
2024/02/24 10:17:53;;;;;;;9.52;6.38;;;7.20;99.90;;;;;;5004870;28;20037;-72
2024/02/24 10:20:19;;;;;;;4.72;4.00;;;7.20;99.90;;;;;;5023567;28;20430;-72
2024/02/24 10:22:45;;;;;;;9.02;6.30;;;7.20;99.90;;;;;;5025070;28;20049;-71
2024/02/24 10:25:11;;;;;;;10.82;6.03;;;7.20;99.90;;;;;;5025860;28;20044;-72
2024/02/24 10:27:36;;;;;;;12.30;6.90;;;7.30;99.90;;;;;;5028845;28;20448;-71
2024/02/24 10:30:04;;;;;;;8.20;6.65;;;7.30;99.90;;;;;;5024793;28;20048;-72
2024/02/24 10:32:32;;;;;;;11.00;6.75;;;7.30;99.90;;;;;;5022686;28;20057;-71
2024/02/24 10:34:59;;;;;;;5.30;3.97;;;7.40;99.90;;;;;;4991555;28;20069;-72
2024/02/24 10:37:26;;;;;;;3.25;2.80;;;7.40;99.90;;;;;;4997014;28;20522;-72
2024/02/24 10:39:53;;;;;;;8.30;6.30;;;7.30;99.90;;;;;;5007380;28;20502;-71
2024/02/24 10:42:25;;;;;;;9.45;6.28;;;7.30;99.90;;;;;;5031383;28;20063;-71
2024/02/24 10:44:52;;;;;;;7.90;5.53;;;7.30;99.90;;;;;;5005525;28;20094;-71
2024/02/24 10:47:18;;;;;;;11.75;7.07;;;7.30;99.90;;;;;;5029358;28;20163;-71
2024/02/24 10:49:44;;;;;;;13.80;6.47;;;7.30;99.90;;;;;;5020195;28;20499;-71
2024/02/24 10:52:10;;;;;;;13.55;6.82;;;7.30;99.90;;;;;;5025101;28;20056;-71
2024/02/24 10:54:39;;;;;;;11.90;6.70;;;7.30;99.90;;;;;;5038306;28;20056;-71
2024/02/24 10:57:06;;;;;;;8.40;6.65;;;7.30;99.90;;;;;;5023412;28;20080;-70
2024/02/24 10:59:32;;;;;;;8.90;6.70;;;7.40;99.90;;;;;;4998543;28;20095;-71
2024/02/24 11:02:03;;;;;;;11.50;6.72;;;7.50;99.90;;;;;;5020084;28;20053;-72
2024/02/24 11:04:33;;;;;;;11.27;7.53;;;7.60;99.90;;;;;;5025011;28;20384;-71
2024/02/24 11:07:00;;;;;;;9.10;5.72;;;7.70;99.90;;;;;;5021882;28;20061;-71
2024/02/24 11:09:30;;;;;;;10.13;6.43;;;7.80;99.90;;;;;;5041401;28;20467;-71
2024/02/24 11:12:12;;;;;;;10.90;7.90;;;7.90;99.90;;;;;;5022940;28;20049;-71
2024/02/24 11:14:40;;;;;;;9.10;6.68;;;8.00;99.90;;;;;;5008622;28;20362;-71
2024/02/24 11:17:08;;;;;;;11.55;6.68;;;8.20;99.90;;;;;;5023869;28;20040;-71
2024/02/24 11:19:44;;;;;;;9.02;6.25;;;8.30;99.90;;;;;;5034820;28;20046;-71
2024/02/24 11:22:29;;;;;;;8.90;5.78;;;8.20;99.90;;;;;;5034630;28;20049;-71
2024/02/24 11:25:00;;;;;;;7.82;5.40;;;8.30;99.90;;;;;;5009690;28;20053;-71
2024/02/24 11:27:37;;;;;;;7.10;4.20;;;8.20;99.90;;;;;;5024817;28;20128;-71
2024/02/24 11:30:34;;;;;;;8.75;6.47;;;8.10;99.90;;;;;;5021855;28;20076;-71
2024/02/24 11:33:23;;;;;;;8.32;4.60;;;8.10;99.90;;;;;;5018226;28;20140;-71
2024/02/24 11:35:54;;;;;;;8.25;4.65;;;8.20;99.90;;;;;;5024290;28;20057;-70
2024/02/24 11:38:24;;;;;;;8.40;5.90;;;8.20;99.90;;;;;;5021762;28;20057;-70
2024/02/24 11:40:51;;;;;;;7.80;5.18;;;8.30;99.90;;;;;;5019890;28;20041;-71
2024/02/24 11:43:19;;;;;;;8.30;6.13;;;8.30;99.90;;;;;;5023393;28;20083;-71
2024/02/24 11:45:49;;;;;;;9.38;5.70;;;8.40;99.90;;;;;;5021389;28;20033;-70
2024/02/24 11:48:17;;;;;;;10.07;6.30;;;8.50;99.90;;;;;;4989968;28;20132;-71
2024/02/24 11:50:44;;;;;;;8.57;5.57;;;8.60;99.90;;;;;;5021976;28;20490;-70
2024/02/24 11:53:12;;;;;;;11.90;6.68;;;8.70;99.90;;;;;;5027086;28;20183;-70
2024/02/24 11:55:38;;;;;;;11.70;7.28;;;8.90;99.90;;;;;;5025428;28;20057;-70
2024/02/24 11:58:07;;;;;;;10.43;6.38;;;9.00;99.90;;;;;;5007221;28;20098;-70
2024/02/24 12:00:38;;;;;;;11.05;6.40;;;9.10;99.90;;;;;;5024573;28;20407;-70
2024/02/24 12:03:04;;;;;;;13.02;5.95;;;9.20;99.90;;;;;;5008332;28;20403;-71
2024/02/24 12:05:30;;;;;;;9.07;5.57;;;9.30;99.90;;;;;;5043195;28;20045;-70
2024/02/24 12:08:04;;;;;;;9.15;5.60;;;9.30;99.90;;;;;;5024470;28;20045;-70
2024/02/24 12:10:36;;;;;;;10.98;6.43;;;9.30;99.90;;;;;;5027010;28;20542;-70
2024/02/24 12:13:18;;;;;;;6.95;4.70;;;9.40;99.90;;;;;;5025759;28;20439;-70
2024/02/24 12:15:45;;;;;;;12.07;5.28;;;9.50;99.90;;;;;;5024861;28;20048;-70
2024/02/24 12:18:12;;;;;;;8.07;5.13;;;9.40;99.90;;;;;;5027285;28;20053;-70
2024/02/24 12:20:39;;;;;;;8.15;5.40;;;9.30;99.90;;;;;;5019511;28;20128;-70
2024/02/24 12:23:06;;;;;;;11.30;6.25;;;9.30;99.90;;;;;;5029619;28;20044;-70
2024/02/24 12:25:33;;;;;;;7.45;5.00;;;9.20;99.90;;;;;;5009262;28;20051;-70
2024/02/24 12:27:59;;;;;;;6.32;4.38;;;9.20;99.90;;;;;;5025757;28;20045;-70
2024/02/24 12:30:26;;;;;;;12.40;5.18;;;9.30;99.90;;;;;;5027973;28;20451;-70
2024/02/24 12:32:53;;;;;;;4.68;3.92;;;9.30;99.90;;;;;;5021349;28;20056;-70
2024/02/24 12:35:24;;;;;;;10.85;5.10;;;9.50;99.90;;;;;;5027254;28;20433;-70
2024/02/24 12:37:52;;;;;;;10.18;5.25;;;9.70;99.90;;;;;;5023268;28;20432;-70
2024/02/24 12:40:31;;;;;;;6.95;3.60;;;9.90;99.90;;;;;;5029496;28;20083;-70
2024/02/24 12:42:58;;;;;;;6.30;4.30;;;10.00;99.90;;;;;;5024318;28;20047;-69
2024/02/24 12:45:24;;;;;;;10.80;5.60;;;10.10;99.90;;;;;;5025847;28;20331;-69
2024/02/24 12:47:50;;;;;;;9.43;4.93;;;10.00;99.90;;;;;;5021304;28;20044;-69
2024/02/24 12:50:21;;;;;;;11.27;5.47;;;9.90;99.90;;;;;;5024767;28;20052;-70
2024/02/24 12:52:48;;;;;;;9.75;5.03;;;9.80;99.90;;;;;;5027422;28;20370;-69